Time;durP1;ratioP1;P1;durP2;ratioP2;P2;SDS_P1;SDS_P2;PMS_P1;PMS_P2;Temp;Humidity;BMP_temperature;BMP_pressure;BME280_temperature;BME280_humidity;BME280_pressure;Samples;Min_cycle;Max_cycle;Signal;HPM_P1;HPM_P2
2023/09/06 00:02:24;;;;;;;6.33;5.73;;;;;;;12.86;100.00;100042.50;5035699;28;20227;-78
2023/09/06 00:04:51;;;;;;;6.23;5.63;;;;;;;12.79;100.00;100052.50;5018249;28;20196;-78
2023/09/06 00:07:19;;;;;;;6.27;5.67;;;;;;;12.75;100.00;100046.75;5018036;28;20187;-79
2023/09/06 00:09:50;;;;;;;6.90;5.90;;;;;;;12.72;100.00;100047.19;5018981;28;20270;-79
2023/09/06 00:12:18;;;;;;;5.97;5.37;;;;;;;12.71;100.00;100044.72;5035618;28;20226;-78
2023/09/06 00:14:47;;;;;;;6.33;5.73;;;;;;;12.72;100.00;100049.91;5017888;28;20196;-78
2023/09/06 00:17:15;;;;;;;6.50;5.90;;;;;;;12.70;100.00;100045.78;5035551;28;20233;-78
2023/09/06 00:19:44;;;;;;;6.00;5.50;;;;;;;12.70;100.00;100045.78;5034802;28;20285;-78
2023/09/06 00:22:12;;;;;;;6.30;5.70;;;;;;;12.69;100.00;100046.84;5034461;28;20661;-78
2023/09/06 00:24:41;;;;;;;5.90;5.40;;;;;;;12.70;100.00;100038.53;5033803;28;20280;-78
2023/09/06 00:27:08;;;;;;;5.80;5.40;;;;;;;12.71;100.00;100034.81;5034090;28;20197;-78
2023/09/06 00:29:36;;;;;;;5.87;5.37;;;;;;;12.75;100.00;100029.78;5035909;28;20193;-78
2023/09/06 00:32:04;;;;;;;5.80;5.30;;;;;;;12.77;100.00;100027.72;5034012;28;20204;-78
2023/09/06 00:34:33;;;;;;;5.67;5.27;;;;;;;12.79;100.00;100010.28;5017949;28;20196;-79
2023/09/06 00:37:07;;;;;;;6.00;5.30;;;;;;;12.83;100.00;100020.63;5026088;28;20637;-80
2023/09/06 00:39:39;;;;;;;5.57;5.13;;;;;;;12.84;100.00;100022.25;5012476;28;20213;-78
2023/09/06 00:42:08;;;;;;;6.10;5.50;;;;;;;12.86;100.00;100009.41;5020889;28;20262;-79
2023/09/06 00:44:35;;;;;;;5.87;5.40;;;;;;;12.87;100.00;100013.75;5037957;28;20198;-78
2023/09/06 00:47:03;;;;;;;5.40;5.00;;;;;;;12.88;100.00;100010.03;5037652;28;20194;-78
2023/09/06 00:49:31;;;;;;;5.33;4.83;;;;;;;12.88;100.00;100008.13;5020234;28;20203;-79
2023/09/06 00:52:00;;;;;;;5.40;4.93;;;;;;;12.89;100.00;100012.47;5020126;28;20691;-79
2023/09/06 00:54:27;;;;;;;5.80;5.30;;;;;;;12.90;100.00;100011.41;5037736;28;20556;-78
2023/09/06 00:56:55;;;;;;;5.77;5.27;;;;;;;12.89;100.00;100014.31;5037592;28;20256;-78
2023/09/06 00:59:27;;;;;;;5.90;5.40;;;;;;;12.89;100.00;100011.63;5020327;28;20254;-78
2023/09/06 01:01:58;;;;;;;5.73;5.23;;;;;;;12.89;100.00;100009.78;5020742;28;20631;-79
2023/09/06 01:04:26;;;;;;;5.50;5.10;;;;;;;12.88;100.00;100008.13;5037601;28;20271;-79
2023/09/06 01:06:57;;;;;;;5.33;4.90;;;;;;;12.88;100.00;99996.56;5019723;28;20248;-79
2023/09/06 01:09:29;;;;;;;5.77;5.30;;;;;;;12.89;100.00;99990.94;5020212;28;20166;-79
2023/09/06 01:11:57;;;;;;;5.70;5.20;;;;;;;12.88;100.00;100001.94;5020285;28;20255;-78
2023/09/06 01:14:25;;;;;;;6.10;5.60;;;;;;;12.87;100.00;100008.38;5037676;28;20194;-79
2023/09/06 01:16:55;;;;;;;5.43;4.93;;;;;;;12.86;100.00;100007.53;5037753;28;20215;-79
2023/09/06 01:19:28;;;;;;;6.90;5.33;;;;;;;12.85;100.00;99997.81;5020560;28;20227;-79
2023/09/06 01:22:34;;;;;;;5.43;4.97;;;;;;;12.84;100.00;100001.56;5037046;28;20191;-79
2023/09/06 01:25:03;;;;;;;5.73;5.23;;;;;;;12.84;100.00;99995.34;5020744;28;20208;-79
2023/09/06 01:27:38;;;;;;;5.90;5.30;;;;;;;12.84;100.00;100006.94;5040597;28;20254;-81
2023/09/06 01:30:14;;;;;;;6.53;5.20;;;;;;;12.83;100.00;100001.81;5046389;28;20252;-81
2023/09/06 01:32:44;;;;;;;7.60;5.20;;;;;;;12.85;100.00;100003.19;5028207;28;20194;-81
2023/09/06 01:35:27;;;;;;;5.80;5.30;;;;;;;12.82;100.00;100003.66;5031678;28;20234;-81
2023/09/06 01:37:58;;;;;;;5.90;5.30;;;;;;;12.78;100.00;99997.91;5013331;28;20217;-80
2023/09/06 01:40:29;;;;;;;5.60;5.10;;;;;;;12.78;100.00;100003.28;5013505;28;20198;-81
2023/09/06 01:43:11;;;;;;;5.40;5.00;;;;;;;12.74;100.00;100002.09;5028182;28;20196;-80
2023/09/06 01:45:55;;;;;;;5.70;5.20;;;;;;;12.73;100.00;100005.00;4991971;28;20185;-80
2023/09/06 01:48:24;;;;;;;5.77;5.27;;;;;;;12.70;100.00;100000.88;5009110;28;20192;-80
2023/09/06 01:50:53;;;;;;;5.93;5.43;;;;;;;12.69;100.00;100003.81;5039383;28;20244;-79
2023/09/06 01:53:22;;;;;;;5.37;4.90;;;;;;;12.65;100.00;100003.44;5005375;28;20243;-79
2023/09/06 01:55:53;;;;;;;6.00;5.23;;;;;;;12.59;100.00;100004.34;5005828;28;20186;-79
2023/09/06 01:58:21;;;;;;;6.10;5.50;;;;;;;12.56;100.00;99999.41;5020392;28;20211;-79
2023/09/06 02:00:49;;;;;;;6.03;5.13;;;;;;;12.49;100.00;99997.84;5022947;28;20565;-79
2023/09/06 02:03:18;;;;;;;5.80;5.30;;;;;;;12.46;100.00;99992.91;5038774;28;20191;-79
2023/09/06 02:05:46;;;;;;;6.30;5.70;;;;;;;12.41;100.00;99998.13;5039167;28;20224;-78
2023/09/06 02:08:14;;;;;;;6.03;5.43;;;;;;;12.33;100.00;100000.03;5021814;28;20220;-81
2023/09/06 02:10:47;;;;;;;6.00;5.50;;;;;;;12.28;100.00;100005.25;5039289;28;20230;-79
2023/09/06 02:13:15;;;;;;;6.33;5.37;;;;;;;12.21;100.00;100009.91;5005857;28;20193;-79
2023/09/06 02:15:44;;;;;;;6.43;5.50;;;;;;;12.14;100.00;100008.28;5039965;28;20283;-80
2023/09/06 02:18:17;;;;;;;5.83;5.33;;;;;;;12.08;100.00;100009.19;5026887;28;20275;-80
2023/09/06 02:20:49;;;;;;;6.20;5.63;;;;;;;12.04;100.00;100008.78;5027141;28;20184;-81
2023/09/06 02:23:20;;;;;;;5.93;5.47;;;;;;;12.01;100.00;100011.91;4993910;28;20223;-80
2023/09/06 02:26:02;;;;;;;5.70;5.27;;;;;;;11.95;100.00;100003.91;5044622;28;20189;-81
2023/09/06 02:28:37;;;;;;;5.73;5.23;;;;;;;11.90;100.00;100010.75;5029022;28;20192;-80
2023/09/06 02:31:10;;;;;;;5.97;5.40;;;;;;;11.87;100.00;100019.25;5019692;28;20244;-81
2023/09/06 02:33:44;;;;;;;6.00;5.50;;;;;;;11.81;100.00;100013.94;5028341;28;20193;-81
2023/09/06 02:36:15;;;;;;;6.43;5.30;;;;;;;11.76;100.00;100011.06;5029939;28;20195;-80
2023/09/06 02:38:45;;;;;;;5.80;5.30;;;;;;;11.74;100.00;100015.84;5025479;28;20197;-79
2023/09/06 02:41:15;;;;;;;5.90;5.40;;;;;;;11.70;100.00;100009.25;5023085;28;20272;-79
2023/09/06 02:43:42;;;;;;;5.93;5.33;;;;;;;11.68;100.00;100008.63;5006659;28;20221;-79
2023/09/06 02:46:12;;;;;;;6.03;5.50;;;;;;;11.60;100.00;100001.69;5022802;28;20206;-79
2023/09/06 02:48:40;;;;;;;5.80;5.30;;;;;;;11.57;100.00;100007.47;5040354;28;20200;-79
2023/09/06 02:51:10;;;;;;;7.33;5.90;;;;;;;11.53;100.00;100008.94;5007213;28;20233;-79
2023/09/06 02:53:44;;;;;;;6.00;5.50;;;;;;;11.50;100.00;100012.06;5023244;28;20207;-80
2023/09/06 02:56:15;;;;;;;6.00;5.50;;;;;;;11.48;100.00;100014.94;5035717;28;20573;-80
2023/09/06 02:58:43;;;;;;;6.13;5.53;;;;;;;11.45;100.00;100017.25;5026311;28;20577;-79
2023/09/06 03:01:19;;;;;;;6.07;5.53;;;;;;;11.43;100.00;100013.97;5041246;28;20275;-80
2023/09/06 03:03:51;;;;;;;6.00;5.50;;;;;;;11.41;100.00;100026.78;5023449;28;20263;-80
2023/09/06 03:06:32;;;;;;;5.60;5.10;;;;;;;11.32;100.00;100015.47;4992744;28;20207;-79
2023/09/06 03:09:07;;;;;;;5.57;5.07;;;;;;;11.29;100.00;100017.78;5009733;28;20285;-80
2023/09/06 03:11:38;;;;;;;5.90;5.40;;;;;;;11.27;100.00;100019.84;5018310;28;20241;-79
2023/09/06 03:14:05;;;;;;;6.13;5.53;;;;;;;11.24;100.00;100018.41;5042734;28;20206;-79
2023/09/06 03:16:38;;;;;;;6.10;5.60;;;;;;;11.20;100.00;100019.84;5043487;28;20662;-79
2023/09/06 03:19:10;;;;;;;5.83;5.33;;;;;;;11.16;100.00;100020.50;5043080;28;20196;-79
2023/09/06 03:21:40;;;;;;;5.93;5.33;;;;;;;11.14;100.00;100022.59;5043787;28;20199;-80
2023/09/06 03:24:12;;;;;;;6.13;5.57;;;;;;;11.13;100.00;100028.97;5027259;28;20231;-79
2023/09/06 03:26:43;;;;;;;5.73;5.23;;;;;;;11.12;100.00;100025.47;5043606;28;20194;-79
2023/09/06 03:29:15;;;;;;;6.00;5.40;;;;;;;11.09;100.00;100020.53;5028106;28;20244;-80
2023/09/06 03:31:45;;;;;;;6.30;5.80;;;;;;;11.09;100.00;100023.22;5043550;28;20544;-79
2023/09/06 03:34:15;;;;;;;5.77;5.33;;;;;;;11.08;100.00;100020.75;5044354;28;20222;-80
2023/09/06 03:36:46;;;;;;;7.23;6.53;;;;;;;11.06;100.00;100029.00;5042688;28;20737;-80
2023/09/06 03:39:15;;;;;;;6.53;5.93;;;;;;;11.02;100.00;100025.94;5061974;28;20238;-80
2023/09/06 03:41:42;;;;;;;6.43;5.90;;;;;;;10.93;100.00;100029.88;5043030;28;20200;-80
2023/09/06 03:44:16;;;;;;;6.43;5.93;;;;;;;10.86;100.00;100026.41;5061793;28;20262;-80
2023/09/06 03:46:48;;;;;;;7.50;6.70;;;;;;;10.82;100.00;100033.25;5028550;28;20202;-80
2023/09/06 03:49:18;;;;;;;6.47;5.90;;;;;;;10.78;100.00;100028.50;5044992;28;20283;-80
2023/09/06 03:51:46;;;;;;;6.10;5.60;;;;;;;10.76;100.00;100031.41;5062272;28;20633;-80
2023/09/06 03:54:17;;;;;;;6.40;5.83;;;;;;;10.74;100.00;100033.44;5061894;28;20265;-80
2023/09/06 03:56:46;;;;;;;6.77;6.17;;;;;;;10.72;100.00;100024.00;5044539;28;20213;-80
2023/09/06 03:59:15;;;;;;;7.07;6.50;;;;;;;10.70;100.00;100028.72;5028274;28;20190;-80
2023/09/06 04:01:45;;;;;;;6.60;6.00;;;;;;;10.65;100.00;100029.34;5028886;28;20204;-80
2023/09/06 04:04:14;;;;;;;6.63;6.13;;;;;;;10.65;100.00;100048.13;5044643;28;20280;-80
2023/09/06 04:10:38;;;;;;;6.77;6.17;;;;;;;10.50;100.00;100045.66;5062233;28;20209;-80
2023/09/06 04:13:11;;;;;;;6.70;6.10;;;;;;;10.49;100.00;100038.69;5063099;28;20205;-80
2023/09/06 04:15:40;;;;;;;6.37;5.87;;;;;;;10.45;100.00;100037.44;5029576;28;20632;-80
2023/09/06 04:18:12;;;;;;;6.53;5.93;;;;;;;10.49;100.00;100043.22;5045071;28;20213;-80
2023/09/06 04:20:46;;;;;;;6.50;5.90;;;;;;;10.49;100.00;100037.84;5045432;28;20185;-80
2023/09/06 04:23:16;;;;;;;7.07;6.47;;;;;;;10.49;100.00;100046.72;5029829;28;20200;-80
2023/09/06 04:25:50;;;;;;;6.60;6.00;;;;;;;10.49;100.00;100043.22;5062912;28;20228;-80
2023/09/06 04:28:28;;;;;;;6.37;5.87;;;;;;;10.49;100.00;100043.22;5044829;28;20208;-80
2023/09/06 04:31:00;;;;;;;6.50;5.90;;;;;;;10.51;100.00;100041.97;5028773;28;20664;-80
2023/09/06 04:33:33;;;;;;;6.43;5.80;;;;;;;10.54;100.00;100046.09;5045165;28;20203;-80
2023/09/06 04:36:10;;;;;;;6.40;5.90;;;;;;;10.56;100.00;100044.84;5045003;28;20194;-80
2023/09/06 04:38:40;;;;;;;6.07;5.57;;;;;;;10.59;100.00;100040.94;5028176;28;20244;-80
2023/09/06 04:41:10;;;;;;;6.30;5.70;;;;;;;10.62;100.00;100040.50;5045622;28;20216;-80
2023/09/06 04:43:48;;;;;;;6.93;5.63;;;;;;;10.69;100.00;100046.66;5046259;28;20193;-80
2023/09/06 04:46:17;;;;;;;6.17;5.67;;;;;;;10.76;100.00;100046.66;5044953;28;20205;-80
2023/09/06 04:48:48;;;;;;;6.30;5.70;;;;;;;10.82;100.00;100051.19;5035647;28;20669;-80
2023/09/06 04:51:16;;;;;;;6.67;6.07;;;;;;;10.90;100.00;100051.75;5037546;28;20202;-80
2023/09/06 04:53:45;;;;;;;7.37;6.27;;;;;;;11.03;100.00;100056.25;5028816;28;20198;-81
2023/09/06 04:56:18;;;;;;;6.77;6.17;;;;;;;11.15;100.00;100054.53;5025073;28;20214;-81
2023/09/06 04:58:48;;;;;;;7.33;5.97;;;;;;;11.28;100.00;100059.88;5025019;28;20222;-80
2023/09/06 05:01:18;;;;;;;6.40;5.90;;;;;;;11.37;100.00;100055.91;5043275;28;20353;-80
2023/09/06 05:03:46;;;;;;;6.50;5.90;;;;;;;11.50;100.00;100065.72;5023949;28;20219;-80
2023/09/06 05:06:15;;;;;;;6.80;6.20;;;;;;;11.60;100.00;100063.41;5041465;28;20679;-80
2023/09/06 05:08:44;;;;;;;6.27;5.47;;;;;;;11.71;100.00;100065.38;5007825;28;20239;-80
2023/09/06 05:11:17;;;;;;;7.43;6.27;;;;;;;11.85;100.00;100053.53;4999519;28;20266;-80
2023/09/06 05:13:49;;;;;;;8.03;6.13;;;;;;;11.99;100.00;100062.31;5002607;28;20205;-80
2023/09/06 05:16:18;;;;;;;6.63;6.03;;;;;;;12.12;100.00;100064.94;5002587;28;20204;-80
2023/09/06 05:18:46;;;;;;;7.70;6.20;;;;;;;12.23;100.00;100061.50;5002779;28;20231;-80
2023/09/06 05:21:19;;;;;;;7.43;5.60;;;;;;;12.36;100.00;100068.66;4987438;28;20242;-80
2023/09/06 05:23:51;;;;;;;6.17;5.60;;;;;;;12.47;100.00;100065.22;4985962;28;20205;-80
2023/09/06 05:26:22;;;;;;;6.50;5.80;;;;;;;12.60;100.00;100067.78;4969330;28;20193;-80
2023/09/06 05:28:49;;;;;;;6.17;5.67;;;;;;;12.72;100.00;100060.66;4984445;28;20222;-81
2023/09/06 05:31:18;;;;;;;5.90;5.40;;;;;;;12.88;100.00;100067.28;4984639;28;20197;-80
2023/09/06 05:33:48;;;;;;;5.93;5.43;;;;;;;13.01;100.00;100063.66;4984475;28;20204;-79
2023/09/06 05:36:19;;;;;;;6.43;5.93;;;;;;;13.18;100.00;100062.00;4983687;28;20197;-80
2023/09/06 05:38:48;;;;;;;6.40;5.87;;;;;;;13.35;100.00;100062.19;5001119;28;20759;-80
2023/09/06 05:41:19;;;;;;;5.90;5.40;;;;;;;13.51;100.00;100062.41;4967466;28;20199;-80
2023/09/06 05:43:48;;;;;;;6.10;5.60;;;;;;;13.63;100.00;100071.34;4951805;28;20220;-80
2023/09/06 05:46:20;;;;;;;6.03;5.53;;;;;;;13.78;100.00;100068.22;4982276;28;20194;-80
2023/09/06 05:49:05;;;;;;;6.10;5.60;;;;;;;13.94;100.00;100082.91;4968911;28;20206;-80
2023/09/06 05:51:36;;;;;;;6.27;5.77;;;;;;;14.09;100.00;100078.72;4983256;28;20282;-80
2023/09/06 05:54:04;;;;;;;6.50;6.00;;;;;;;14.22;100.00;100077.72;4966030;28;20236;-80
2023/09/06 05:56:35;;;;;;;7.17;6.10;;;;;;;14.35;100.00;100073.97;4982904;28;20188;-80
2023/09/06 05:59:05;;;;;;;6.63;6.03;;;;;;;14.49;100.00;100075.41;4983657;28;20246;-80
2023/09/06 06:01:34;;;;;;;7.13;6.27;;;;;;;14.65;100.00;100072.00;4983302;28;20203;-80
2023/09/06 06:04:02;;;;;;;6.20;5.70;;;;;;;14.80;100.00;100066.94;4982890;28;20219;-80
2023/09/06 06:06:30;;;;;;;7.33;5.70;;;;;;;14.97;100.00;100073.28;4981907;28;20207;-79
2023/09/06 06:08:58;;;;;;;6.30;5.80;;;;;;;15.10;100.00;100072.19;4979599;28;20252;-80
2023/09/06 06:11:27;;;;;;;6.23;5.63;;;;;;;15.25;100.00;100068.97;4995770;28;20638;-80
2023/09/06 06:13:56;;;;;;;5.97;5.37;;;;;;;15.40;100.00;100077.34;4962632;28;20195;-79
2023/09/06 06:16:46;;;;;;;6.23;5.73;;;;;;;15.55;100.00;100079.56;4964293;28;20196;-79
2023/09/06 06:19:14;;;;;;;6.13;5.63;;;;;;;15.68;100.00;100082.81;4995578;28;20696;-79
2023/09/06 06:21:43;;;;;;;7.03;5.50;;;;;;;15.80;100.00;100085.47;4995918;28;20184;-79
2023/09/06 06:24:13;;;;;;;8.33;6.30;;;;;;;15.90;100.00;100088.34;4978599;28;20576;-80
2023/09/06 06:26:41;;;;;;;6.77;6.13;;;;;;;16.02;100.00;100090.97;4995698;28;20629;-79
2023/09/06 06:29:09;;;;;;;5.83;5.33;;;;;;;16.06;100.00;100090.25;4978187;28;20200;-79
2023/09/06 06:31:38;;;;;;;6.00;5.40;;;;;;;16.18;100.00;100093.72;4995024;28;20243;-79
2023/09/06 06:34:06;;;;;;;6.33;5.57;;;;;;;16.32;100.00;100096.91;4995283;28;20606;-80
2023/09/06 06:36:34;;;;;;;6.10;5.50;;;;;;;16.35;100.00;100096.41;4995178;28;20188;-79
2023/09/06 06:39:01;;;;;;;6.60;5.93;;;;;;;16.48;100.00;100098.78;4995147;28;20211;-80
2023/09/06 06:41:28;;;;;;;6.10;5.60;;;;;;;16.57;100.00;100100.00;4994992;28;20595;-80
2023/09/06 06:43:56;;;;;;;6.20;5.67;;;;;;;16.69;100.00;100089.97;4995284;28;20183;-79
2023/09/06 06:46:33;;;;;;;5.87;5.27;;;;;;;16.76;100.00;100100.59;4994968;28;20207;-79
2023/09/06 06:49:04;;;;;;;9.07;5.70;;;;;;;16.86;100.00;100099.91;4961672;28;20199;-80
2023/09/06 06:51:40;;;;;;;5.77;5.27;;;;;;;17.02;100.00;100101.78;4978704;28;20638;-81
2023/09/06 06:54:14;;;;;;;6.10;5.50;;;;;;;17.09;100.00;100105.94;4962209;28;20199;-80
2023/09/06 06:56:42;;;;;;;6.47;5.30;;;;;;;17.20;100.00;100103.34;4978019;28;20188;-83
2023/09/06 06:59:09;;;;;;;6.97;5.70;;;;;;;17.25;100.00;100108.84;4994615;28;20204;-79
2023/09/06 07:01:38;;;;;;;6.93;5.70;;;;;;;17.35;100.00;100115.22;4994465;28;20597;-81
2023/09/06 07:04:05;;;;;;;6.67;5.87;;;;;;;17.49;100.00;100105.63;4994472;28;20191;-79
2023/09/06 07:06:35;;;;;;;6.77;5.70;;;;;;;17.64;100.00;100106.91;4994511;28;20199;-80
2023/09/06 07:09:03;;;;;;;7.87;6.00;;;;;;;17.79;100.00;100098.94;5016565;28;20218;-80
2023/09/06 07:11:31;;;;;;;7.33;5.20;;;;;;;17.89;100.00;100105.28;5018216;28;20237;-80
2023/09/06 07:13:59;;;;;;;6.77;5.57;;;;;;;18.06;100.00;100101.66;5030250;28;20262;-83
2023/09/06 07:16:33;;;;;;;7.03;5.53;;;;;;;18.21;100.00;100104.47;5027791;28;20202;-79
2023/09/06 07:19:02;;;;;;;6.23;4.90;;;;;;;18.34;100.00;100102.16;5027745;28;20225;-81
2023/09/06 07:21:31;;;;;;;6.57;5.57;;;;;;;18.52;100.00;100103.66;5031177;28;20207;-80
2023/09/06 07:23:58;;;;;;;5.53;5.03;;;;;;;18.67;100.00;100102.97;5028579;28;20199;-84
2023/09/06 07:26:25;;;;;;;5.10;4.50;;;;;;;18.77;100.00;100103.03;5032673;28;20684;-80
2023/09/06 07:28:53;;;;;;;7.20;5.17;;;;;;;18.92;100.00;100105.84;5032627;28;20573;-81
2023/09/06 07:31:20;;;;;;;5.77;5.27;;;;;;;19.05;100.00;100099.13;5032660;28;20192;-81
2023/09/06 07:33:48;;;;;;;4.80;4.40;;;;;;;19.18;100.00;100095.94;5030706;28;20189;-81
2023/09/06 07:36:18;;;;;;;6.43;4.87;;;;;;;19.31;100.00;100095.47;5032582;28;20216;-81
2023/09/06 07:38:47;;;;;;;6.17;5.17;;;;;;;19.48;100.00;100100.72;5032339;28;20220;-80
2023/09/06 07:41:19;;;;;;;5.27;4.77;;;;;;;19.61;100.00;100094.78;5032327;28;20274;-81
2023/09/06 07:43:47;;;;;;;7.13;4.97;;;;;;;19.69;100.00;100100.50;5031497;28;20199;-81
2023/09/06 07:46:15;;;;;;;5.90;4.80;;;;;;;19.83;100.00;100100.03;5032142;28;20561;-80
2023/09/06 07:48:43;;;;;;;5.23;4.83;;;;;;;20.01;100.00;100099.50;5032174;28;20237;-80
2023/09/06 07:51:12;;;;;;;5.43;4.90;;;;;;;19.91;100.00;100089.41;5031924;28;20667;-81
2023/09/06 07:53:39;;;;;;;6.27;4.63;;;;;;;20.12;100.00;100095.69;5032074;28;20207;-80
2023/09/06 07:56:07;;;;;;;5.20;4.70;;;;;;;20.22;100.00;100096.53;5014598;28;20199;-80
2023/09/06 07:59:21;;;;;;;6.27;4.27;;;;;;;20.47;100.00;100095.75;5029330;28;20243;-81
2023/09/06 08:01:53;;;;;;;5.00;3.90;;;;;;;20.67;100.00;100097.59;5011737;28;20199;-80
2023/09/06 08:04:21;;;;;;;5.50;4.27;;;;;;;20.78;100.00;100101.94;5010700;28;20197;-80
2023/09/06 08:06:49;;;;;;;4.72;4.20;;;;;;;20.99;100.00;100100.00;5014520;28;20230;-80
2023/09/06 08:09:17;;;;;;;4.90;4.50;;;;;;;21.09;100.00;100103.50;5032156;28;20284;-80
2023/09/06 08:11:45;;;;;;;4.88;4.20;;;;;;;21.21;100.00;100100.50;5019872;28;20248;-80
2023/09/06 08:14:12;;;;;;;4.70;4.20;;;;;;;21.34;100.00;100107.28;5004046;28;20281;-80
2023/09/06 08:16:40;;;;;;;4.70;4.30;;;;;;;21.53;100.00;100095.47;5012167;28;20289;-80
2023/09/06 08:19:07;;;;;;;4.20;3.90;;;;;;;21.66;100.00;100099.47;5012270;28;20689;-81
2023/09/06 08:21:35;;;;;;;5.03;3.92;;;;;;;21.83;100.00;100091.75;5012129;28;20612;-80
2023/09/06 08:24:03;;;;;;;3.78;3.22;;;;;;;22.05;100.00;100096.00;5011294;28;20695;-80
2023/09/06 08:26:31;;;;;;;4.03;3.40;;;;;;;22.27;100.00;100090.91;5012184;28;20194;-80
2023/09/06 08:28:58;;;;;;;4.65;3.22;;;;;;;22.48;100.00;100092.41;5012437;28;20208;-80
2023/09/06 08:31:27;;;;;;;3.58;3.28;;;;;;;22.70;100.00;100092.75;5012005;28;20191;-80
2023/09/06 08:33:54;;;;;;;3.83;3.45;;;;;;;22.90;100.00;100089.00;5016193;28;20191;-79
2023/09/06 08:36:26;;;;;;;5.00;3.10;;;;;;;23.03;100.00;100082.03;5012011;28;20206;-79
2023/09/06 08:38:55;;;;;;;3.42;3.13;;;;;;;23.20;100.00;100090.56;4992564;28;20304;-79
2023/09/06 08:41:26;;;;;;;3.78;3.17;;;;;;;23.33;100.00;100080.88;5012248;28;20197;-79
2023/09/06 08:43:54;;;;;;;3.20;2.92;;;;;;;23.53;100.00;100075.13;4996297;28;20215;-80
2023/09/06 08:46:33;;;;;;;3.28;2.97;;;;;;;23.72;100.00;100086.09;5011994;28;20202;-79
2023/09/06 08:49:03;;;;;;;5.00;3.03;;;;;;;23.80;100.00;100079.94;5011978;28;20206;-83
2023/09/06 08:51:35;;;;;;;5.47;2.97;;;;;;;23.91;100.00;100074.03;5012276;28;20187;-81
2023/09/06 08:54:06;;;;;;;2.85;2.65;;;;;;;24.05;100.00;100077.66;4991303;28;20230;-79
2023/09/06 08:56:35;;;;;;;3.13;2.90;;;;;;;24.22;100.00;100079.06;4997341;28;20234;-79
2023/09/06 08:59:02;;;;;;;3.10;2.90;;;;;;;24.29;100.00;100077.59;5015498;28;20217;-79
2023/09/06 09:01:31;;;;;;;4.38;3.00;;;;;;;24.39;100.00;100077.41;5015458;28;20206;-79
2023/09/06 09:03:59;;;;;;;4.32;3.20;;;;;;;24.38;100.00;100075.78;5015673;28;20207;-79
2023/09/06 09:06:29;;;;;;;4.00;2.97;;;;;;;24.40;100.00;100072.75;5015249;28;20214;-79
2023/09/06 09:09:16;;;;;;;3.38;2.90;;;;;;;24.60;99.17;100071.56;5015287;28;20236;-79
2023/09/06 09:11:49;;;;;;;3.20;2.85;;;;;;;24.70;96.59;100069.47;5007429;28;20238;-79
2023/09/06 09:14:21;;;;;;;3.95;3.05;;;;;;;24.80;94.62;100061.06;4985269;28;20202;-83
2023/09/06 09:16:59;;;;;;;4.90;2.90;;;;;;;24.96;93.36;100072.56;4986481;28;20241;-79
2023/09/06 09:19:27;;;;;;;4.35;3.40;;;;;;;25.08;92.65;100074.81;4987717;28;20222;-80
2023/09/06 09:21:55;;;;;;;3.25;2.95;;;;;;;25.23;92.69;100080.81;4999317;28;20207;-79
2023/09/06 09:24:26;;;;;;;3.10;2.80;;;;;;;25.38;89.40;100069.50;5031351;28;20648;-80
2023/09/06 09:26:56;;;;;;;4.72;3.15;;;;;;;25.45;88.03;100077.31;5015241;28;20285;-79
2023/09/06 09:29:24;;;;;;;4.80;2.97;;;;;;;25.59;86.59;100080.88;5019061;28;20198;-80
2023/09/06 09:31:53;;;;;;;3.20;2.90;;;;;;;25.72;85.36;100069.06;4993334;28;20187;-80
2023/09/06 09:34:21;;;;;;;5.47;3.22;;;;;;;25.74;83.27;100075.06;4994128;28;20199;-82
2023/09/06 09:36:50;;;;;;;4.55;2.85;;;;;;;25.89;83.07;100079.41;4997431;28;20298;-79
2023/09/06 09:39:19;;;;;;;3.10;2.90;;;;;;;25.93;81.52;100071.34;4994035;28;20254;-80
2023/09/06 09:41:47;;;;;;;6.28;3.10;;;;;;;26.00;83.55;100069.78;4993437;28;20207;-79
2023/09/06 09:44:25;;;;;;;3.70;3.00;;;;;;;26.05;81.34;100072.41;5013896;28;20700;-80
2023/09/06 09:46:59;;;;;;;3.78;3.30;;;;;;;26.00;80.19;100083.50;5014530;28;20219;-79
2023/09/06 09:49:43;;;;;;;3.67;3.05;;;;;;;25.99;79.32;100073.63;5026133;28;20215;-80
2023/09/06 09:52:12;;;;;;;3.63;3.15;;;;;;;26.10;80.65;100066.78;5029714;28;20186;-79
2023/09/06 09:54:42;;;;;;;4.43;3.00;;;;;;;26.19;80.58;100064.91;5025988;28;20226;-80
2023/09/06 09:57:11;;;;;;;5.10;3.05;;;;;;;26.27;79.68;100064.19;5034548;28;20195;-79
2023/09/06 09:59:40;;;;;;;3.67;3.10;;;;;;;26.42;79.01;100070.41;5034342;28;20222;-79
2023/09/06 10:02:15;;;;;;;3.47;3.15;;;;;;;26.32;80.26;100066.00;5034230;28;20202;-79
2023/09/06 10:05:02;;;;;;;3.55;3.25;;;;;;;26.24;78.89;100069.50;5009674;28;20280;-83
2023/09/06 10:07:33;;;;;;;3.50;3.08;;;;;;;26.26;80.31;100073.56;5013525;28;20242;-83
2023/09/06 10:10:17;;;;;;;4.32;3.35;;;;;;;26.38;79.88;100070.25;5006792;28;20198;-79
2023/09/06 10:12:51;;;;;;;5.43;3.13;;;;;;;26.46;81.29;100069.47;5025843;28;20673;-80
2023/09/06 10:15:23;;;;;;;4.80;3.55;;;;;;;26.48;77.81;100069.19;5016993;28;20204;-79
2023/09/06 10:17:55;;;;;;;4.85;3.58;;;;;;;26.44;76.12;100059.94;5017490;28;20199;-80
2023/09/06 10:20:23;;;;;;;3.63;3.22;;;;;;;26.46;76.63;100064.00;5034477;28;20249;-79
2023/09/06 10:22:56;;;;;;;4.22;3.83;;;;;;;26.42;76.97;100060.25;5034277;28;20605;-79
2023/09/06 10:25:28;;;;;;;4.43;3.47;;;;;;;26.46;79.14;100053.00;5019876;28;20234;-80
2023/09/06 10:27:57;;;;;;;3.97;3.33;;;;;;;26.52;78.84;100053.69;5020310;28;20195;-79
2023/09/06 10:30:48;;;;;;;3.90;3.10;;;;;;;26.53;75.45;100036.88;4999329;28;20257;-79
2023/09/06 10:33:36;;;;;;;3.63;3.33;;;;;;;26.64;77.57;100045.69;5008013;28;20199;-79
2023/09/06 10:36:08;;;;;;;3.60;3.30;;;;;;;26.69;74.96;100035.34;5006165;28;20289;-79
2023/09/06 10:38:54;;;;;;;3.70;3.40;;;;;;;26.78;74.47;100032.66;5013603;28;20641;-79
2023/09/06 10:41:22;;;;;;;3.58;3.28;;;;;;;26.89;74.65;100030.44;5017575;28;20199;-78
2023/09/06 10:44:00;;;;;;;3.40;3.13;;;;;;;26.95;74.97;100037.44;5017961;28;20191;-79
2023/09/06 10:46:35;;;;;;;4.53;2.85;;;;;;;27.01;72.50;100022.41;5021076;28;20198;-79
2023/09/06 10:49:12;;;;;;;3.45;3.15;;;;;;;27.04;71.78;100030.00;4962978;28;20203;-79
2023/09/06 10:51:56;;;;;;;3.20;2.90;;;;;;;27.11;71.21;100028.41;5012757;28;20207;-79
2023/09/06 10:54:42;;;;;;;3.63;3.25;;;;;;;27.07;71.88;100023.88;5017149;28;20199;-79
2023/09/06 10:57:14;;;;;;;3.28;2.97;;;;;;;27.10;72.29;100015.81;4988548;28;20198;-78
2023/09/06 10:59:44;;;;;;;3.45;2.70;;;;;;;27.21;72.42;100016.31;5006282;28;20253;-80
2023/09/06 11:02:20;;;;;;;3.75;3.20;;;;;;;27.34;71.00;100018.09;4986696;28;20249;-79
2023/09/06 11:05:03;;;;;;;3.45;3.15;;;;;;;27.20;70.78;100019.38;5024593;28;20202;-79
2023/09/06 11:07:39;;;;;;;3.63;3.00;;;;;;;27.26;71.67;100015.34;4984389;28;20271;-82
2023/09/06 11:10:20;;;;;;;3.03;2.72;;;;;;;27.33;69.82;100010.19;4977943;28;20222;-80
2023/09/06 11:12:47;;;;;;;3.15;2.90;;;;;;;27.34;71.49;99998.84;5029385;28;20206;-79
2023/09/06 11:15:15;;;;;;;3.67;2.85;;;;;;;27.35;70.62;100005.16;5028473;28;20213;-79
2023/09/06 11:17:43;;;;;;;3.40;3.08;;;;;;;27.34;70.70;99998.06;5032648;28;20664;-79
2023/09/06 11:20:16;;;;;;;3.75;3.40;;;;;;;27.45;70.54;99993.84;5032948;28;20266;-79
2023/09/06 11:22:48;;;;;;;5.05;3.03;;;;;;;27.63;71.26;99991.94;5032524;28;20206;-79
2023/09/06 11:25:21;;;;;;;3.28;2.83;;;;;;;27.68;70.69;99989.03;5026165;28;20555;-79
2023/09/06 11:27:49;;;;;;;3.33;2.90;;;;;;;27.65;69.94;99984.19;5014719;28;20671;-80
2023/09/06 11:30:26;;;;;;;3.10;2.90;;;;;;;27.77;69.94;99978.81;5032456;28;20229;-79
2023/09/06 11:32:55;;;;;;;2.83;2.63;;;;;;;27.88;69.75;99969.09;5030724;28;20241;-79
2023/09/06 11:35:32;;;;;;;3.38;2.90;;;;;;;27.93;68.97;99963.44;5030836;28;20712;-80
2023/09/06 11:38:02;;;;;;;3.85;2.70;;;;;;;27.92;69.23;99965.38;5029500;28;20382;-80
2023/09/06 11:40:31;;;;;;;2.97;2.78;;;;;;;28.02;68.11;99965.03;5013153;28;20285;-80
2023/09/06 11:43:04;;;;;;;3.60;3.30;;;;;;;28.09;68.00;99975.53;5032314;28;20614;-80